sensor_id;sensor_type;location;lat;lon;timestamp;temperature;humidity
68746;SHT31;66104;45.456;11.064;2022-12-29T00:00:09;9.39;74.16
68746;SHT31;66104;45.456;11.064;2022-12-29T00:02:51;9.45;74.08
68746;SHT31;66104;45.456;11.064;2022-12-29T00:05:28;9.49;74.02
68746;SHT31;66104;45.456;11.064;2022-12-29T00:08:05;9.49;74.09
68746;SHT31;66104;45.456;11.064;2022-12-29T00:10:42;9.49;74.18
68746;SHT31;66104;45.456;11.064;2022-12-29T00:13:19;9.52;74.12
68746;SHT31;66104;45.456;11.064;2022-12-29T00:16:09;9.50;74.25
68746;SHT31;66104;45.456;11.064;2022-12-29T00:18:46;9.44;74.49
68746;SHT31;66104;45.456;11.064;2022-12-29T00:21:23;9.41;74.52
68746;SHT31;66104;45.456;11.064;2022-12-29T00:24:17;9.41;74.50
68746;SHT31;66104;45.456;11.064;2022-12-29T00:27:12;9.40;74.51
68746;SHT31;66104;45.456;11.064;2022-12-29T00:30:07;9.38;74.56
68746;SHT31;66104;45.456;11.064;2022-12-29T00:33:09;9.35;74.61
68746;SHT31;66104;45.456;11.064;2022-12-29T00:36:03;9.34;74.56
68746;SHT31;66104;45.456;11.064;2022-12-29T00:38:49;9.34;74.58
68746;SHT31;66104;45.456;11.064;2022-12-29T00:41:48;9.33;74.52
68746;SHT31;66104;45.456;11.064;2022-12-29T00:44:42;9.28;74.60
68746;SHT31;66104;45.456;11.064;2022-12-29T00:47:19;9.27;74.59
68746;SHT31;66104;45.456;11.064;2022-12-29T00:49:56;9.28;74.68
68746;SHT31;66104;45.456;11.064;2022-12-29T00:52:32;9.23;74.94
68746;SHT31;66104;45.456;11.064;2022-12-29T00:55:09;9.15;75.21
68746;SHT31;66104;45.456;11.064;2022-12-29T00:57:46;9.08;75.48
68746;SHT31;66104;45.456;11.064;2022-12-29T01:00:23;9.00;75.75
68746;SHT31;66104;45.456;11.064;2022-12-29T01:02:59;8.91;75.90
68746;SHT31;66104;45.456;11.064;2022-12-29T01:05:37;8.88;76.06
68746;SHT31;66104;45.456;11.064;2022-12-29T01:08:13;8.86;76.17
68746;SHT31;66104;45.456;11.064;2022-12-29T01:10:59;8.84;76.28
68746;SHT31;66104;45.456;11.064;2022-12-29T01:13:37;8.85;76.35
68746;SHT31;66104;45.456;11.064;2022-12-29T01:16:14;8.89;76.30
68746;SHT31;66104;45.456;11.064;2022-12-29T01:18:50;8.92;76.32
68746;SHT31;66104;45.456;11.064;2022-12-29T01:21:27;8.96;76.24
68746;SHT31;66104;45.456;11.064;2022-12-29T01:24:04;8.98;76.33
68746;SHT31;66104;45.456;11.064;2022-12-29T01:26:42;9.02;76.33
68746;SHT31;66104;45.456;11.064;2022-12-29T01:29:19;9.09;76.08
68746;SHT31;66104;45.456;11.064;2022-12-29T01:31:56;9.15;75.93
68746;SHT31;66104;45.456;11.064;2022-12-29T01:34:33;9.21;75.91
68746;SHT31;66104;45.456;11.064;2022-12-29T01:37:10;9.23;75.84
68746;SHT31;66104;45.456;11.064;2022-12-29T01:39:46;9.23;75.81
68746;SHT31;66104;45.456;11.064;2022-12-29T01:42:24;9.20;75.89
68746;SHT31;66104;45.456;11.064;2022-12-29T01:45:02;9.19;75.94
68746;SHT31;66104;45.456;11.064;2022-12-29T01:47:47;9.19;76.00
68746;SHT31;66104;45.456;11.064;2022-12-29T01:50:27;9.20;75.94
68746;SHT31;66104;45.456;11.064;2022-12-29T01:53:09;9.25;75.87
68746;SHT31;66104;45.456;11.064;2022-12-29T01:55:54;9.31;75.66
68746;SHT31;66104;45.456;11.064;2022-12-29T01:58:37;9.32;75.60
68746;SHT31;66104;45.456;11.064;2022-12-29T02:01:20;9.30;75.65
68746;SHT31;66104;45.456;11.064;2022-12-29T02:03:57;9.28;75.78
68746;SHT31;66104;45.456;11.064;2022-12-29T02:06:36;9.25;75.79
68746;SHT31;66104;45.456;11.064;2022-12-29T02:09:19;9.24;75.78
68746;SHT31;66104;45.456;11.064;2022-12-29T02:11:56;9.20;75.77
68746;SHT31;66104;45.456;11.064;2022-12-29T02:14:34;9.12;75.91
68746;SHT31;66104;45.456;11.064;2022-12-29T02:17:13;9.13;75.94
68746;SHT31;66104;45.456;11.064;2022-12-29T02:20:10;9.15;75.94
68746;SHT31;66104;45.456;11.064;2022-12-29T02:23:30;9.19;76.00
68746;SHT31;66104;45.456;11.064;2022-12-29T02:26:43;9.22;76.00
68746;SHT31;66104;45.456;11.064;2022-12-29T02:29:43;9.22;76.20
68746;SHT31;66104;45.456;11.064;2022-12-29T02:32:39;9.21;76.34
68746;SHT31;66104;45.456;11.064;2022-12-29T02:35:32;9.16;76.37
68746;SHT31;66104;45.456;11.064;2022-12-29T02:38:28;9.15;76.49
68746;SHT31;66104;45.456;11.064;2022-12-29T02:41:21;9.18;76.32
68746;SHT31;66104;45.456;11.064;2022-12-29T02:44:07;9.24;76.16
68746;SHT31;66104;45.456;11.064;2022-12-29T02:46:56;9.31;75.79
68746;SHT31;66104;45.456;11.064;2022-12-29T02:49:45;9.32;75.71
68746;SHT31;66104;45.456;11.064;2022-12-29T02:52:31;9.33;75.53
68746;SHT31;66104;45.456;11.064;2022-12-29T02:55:12;9.32;75.75
68746;SHT31;66104;45.456;11.064;2022-12-29T02:58:02;9.29;75.99
68746;SHT31;66104;45.456;11.064;2022-12-29T03:00:52;9.25;76.28
68746;SHT31;66104;45.456;11.064;2022-12-29T03:03:51;9.23;76.53
68746;SHT31;66104;45.456;11.064;2022-12-29T03:06:52;9.27;76.39
68746;SHT31;66104;45.456;11.064;2022-12-29T03:09:41;9.23;76.48
68746;SHT31;66104;45.456;11.064;2022-12-29T03:12:28;9.13;76.97
68746;SHT31;66104;45.456;11.064;2022-12-29T03:15:32;9.03;77.37
68746;SHT31;66104;45.456;11.064;2022-12-29T03:18:37;8.99;77.75
68746;SHT31;66104;45.456;11.064;2022-12-29T03:21:22;8.91;77.74
68746;SHT31;66104;45.456;11.064;2022-12-29T03:24:26;8.84;77.98
68746;SHT31;66104;45.456;11.064;2022-12-29T03:27:08;8.79;78.07
68746;SHT31;66104;45.456;11.064;2022-12-29T03:29:50;8.77;78.52
68746;SHT31;66104;45.456;11.064;2022-12-29T03:32:31;8.77;78.81
68746;SHT31;66104;45.456;11.064;2022-12-29T03:35:15;8.78;78.90
68746;SHT31;66104;45.456;11.064;2022-12-29T03:37:58;8.82;78.83
68746;SHT31;66104;45.456;11.064;2022-12-29T03:40:44;8.90;78.65
68746;SHT31;66104;45.456;11.064;2022-12-29T03:43:28;8.97;78.58
68746;SHT31;66104;45.456;11.064;2022-12-29T03:46:04;8.96;78.52
68746;SHT31;66104;45.456;11.064;2022-12-29T03:48:42;8.96;78.46
68746;SHT31;66104;45.456;11.064;2022-12-29T03:51:19;8.95;78.60
68746;SHT31;66104;45.456;11.064;2022-12-29T03:53:57;8.99;78.74
68746;SHT31;66104;45.456;11.064;2022-12-29T03:56:34;9.05;78.75
68746;SHT31;66104;45.456;11.064;2022-12-29T03:59:12;9.07;78.84
68746;SHT31;66104;45.456;11.064;2022-12-29T04:01:50;9.11;78.85
68746;SHT31;66104;45.456;11.064;2022-12-29T04:04:28;9.14;78.82
68746;SHT31;66104;45.456;11.064;2022-12-29T04:07:04;9.16;78.79
68746;SHT31;66104;45.456;11.064;2022-12-29T04:09:41;9.18;78.71
68746;SHT31;66104;45.456;11.064;2022-12-29T04:12:22;9.16;78.78
68746;SHT31;66104;45.456;11.064;2022-12-29T04:14:59;9.12;78.91
68746;SHT31;66104;45.456;11.064;2022-12-29T04:17:38;9.09;79.15
68746;SHT31;66104;45.456;11.064;2022-12-29T04:20:14;9.09;79.23
68746;SHT31;66104;45.456;11.064;2022-12-29T04:23:08;9.09;79.30
68746;SHT31;66104;45.456;11.064;2022-12-29T04:25:46;9.11;79.17
68746;SHT31;66104;45.456;11.064;2022-12-29T04:28:23;9.09;79.05
68746;SHT31;66104;45.456;11.064;2022-12-29T04:31:19;9.09;78.90
68746;SHT31;66104;45.456;11.064;2022-12-29T04:33:56;9.10;78.94
68746;SHT31;66104;45.456;11.064;2022-12-29T04:36:36;9.11;78.95
68746;SHT31;66104;45.456;11.064;2022-12-29T04:39:13;9.12;78.98
68746;SHT31;66104;45.456;11.064;2022-12-29T04:41:52;9.17;78.83
68746;SHT31;66104;45.456;11.064;2022-12-29T04:44:29;9.19;78.76
68746;SHT31;66104;45.456;11.064;2022-12-29T04:47:16;9.22;78.70
68746;SHT31;66104;45.456;11.064;2022-12-29T04:50:07;9.20;78.73
68746;SHT31;66104;45.456;11.064;2022-12-29T04:52:53;9.17;78.83
68746;SHT31;66104;45.456;11.064;2022-12-29T04:55:30;9.14;79.06
68746;SHT31;66104;45.456;11.064;2022-12-29T04:58:07;9.11;79.14
68746;SHT31;66104;45.456;11.064;2022-12-29T05:00:50;9.10;79.24
68746;SHT31;66104;45.456;11.064;2022-12-29T05:03:30;9.14;79.32
68746;SHT31;66104;45.456;11.064;2022-12-29T05:06:07;9.17;79.32
68746;SHT31;66104;45.456;11.064;2022-12-29T05:08:46;9.23;79.20
68746;SHT31;66104;45.456;11.064;2022-12-29T05:11:23;9.24;79.23
68746;SHT31;66104;45.456;11.064;2022-12-29T05:13:59;9.24;79.30
68746;SHT31;66104;45.456;11.064;2022-12-29T05:16:36;9.23;79.26
68746;SHT31;66104;45.456;11.064;2022-12-29T05:19:13;9.20;79.29
68746;SHT31;66104;45.456;11.064;2022-12-29T05:21:51;9.10;79.55
68746;SHT31;66104;45.456;11.064;2022-12-29T05:24:27;9.04;79.86
68746;SHT31;66104;45.456;11.064;2022-12-29T05:27:05;9.06;79.96
68746;SHT31;66104;45.456;11.064;2022-12-29T05:30:12;9.05;79.96
68746;SHT31;66104;45.456;11.064;2022-12-29T05:32:50;9.07;80.10
68746;SHT31;66104;45.456;11.064;2022-12-29T05:35:27;9.09;80.16
68746;SHT31;66104;45.456;11.064;2022-12-29T05:38:03;9.10;80.25
68746;SHT31;66104;45.456;11.064;2022-12-29T05:40:41;9.11;80.30
68746;SHT31;66104;45.456;11.064;2022-12-29T05:43:38;9.14;80.38
68746;SHT31;66104;45.456;11.064;2022-12-29T05:46:27;9.19;80.23
68746;SHT31;66104;45.456;11.064;2022-12-29T05:49:12;9.22;80.14
68746;SHT31;66104;45.456;11.064;2022-12-29T05:52:08;9.24;80.21
68746;SHT31;66104;45.456;11.064;2022-12-29T05:54:46;9.24;80.08
68746;SHT31;66104;45.456;11.064;2022-12-29T05:57:24;9.23;79.97
68746;SHT31;66104;45.456;11.064;2022-12-29T06:00:11;9.19;80.23
68746;SHT31;66104;45.456;11.064;2022-12-29T06:02:52;9.17;80.50
68746;SHT31;66104;45.456;11.064;2022-12-29T06:05:29;9.17;80.54
68746;SHT31;66104;45.456;11.064;2022-12-29T06:08:05;9.19;80.55
68746;SHT31;66104;45.456;11.064;2022-12-29T06:10:42;9.21;80.57
68746;SHT31;66104;45.456;11.064;2022-12-29T06:13:19;9.22;80.58
68746;SHT31;66104;45.456;11.064;2022-12-29T06:15:55;9.24;80.51
68746;SHT31;66104;45.456;11.064;2022-12-29T06:18:32;9.25;80.55
68746;SHT31;66104;45.456;11.064;2022-12-29T06:21:09;9.24;80.67
68746;SHT31;66104;45.456;11.064;2022-12-29T06:23:46;9.22;80.70
68746;SHT31;66104;45.456;11.064;2022-12-29T06:26:23;9.22;80.79
68746;SHT31;66104;45.456;11.064;2022-12-29T06:29:02;9.24;80.76
68746;SHT31;66104;45.456;11.064;2022-12-29T06:31:38;9.25;80.72
68746;SHT31;66104;45.456;11.064;2022-12-29T06:34:16;9.24;80.80
68746;SHT31;66104;45.456;11.064;2022-12-29T06:36:53;9.22;80.70
68746;SHT31;66104;45.456;11.064;2022-12-29T06:39:29;9.19;80.56
68746;SHT31;66104;45.456;11.064;2022-12-29T06:42:11;9.14;80.63
68746;SHT31;66104;45.456;11.064;2022-12-29T06:45:17;9.16;80.48
68746;SHT31;66104;45.456;11.064;2022-12-29T06:47:52;9.13;80.54
68746;SHT31;66104;45.456;11.064;2022-12-29T06:50:31;9.10;80.60
68746;SHT31;66104;45.456;11.064;2022-12-29T06:53:08;9.05;80.62
68746;SHT31;66104;45.456;11.064;2022-12-29T06:55:45;9.01;80.74
68746;SHT31;66104;45.456;11.064;2022-12-29T06:58:22;9.02;80.81
68746;SHT31;66104;45.456;11.064;2022-12-29T07:00:59;9.06;80.79
68746;SHT31;66104;45.456;11.064;2022-12-29T07:03:37;9.10;80.72
68746;SHT31;66104;45.456;11.064;2022-12-29T07:06:14;9.11;80.70
68746;SHT31;66104;45.456;11.064;2022-12-29T07:08:51;9.11;80.85
68746;SHT31;66104;45.456;11.064;2022-12-29T07:11:26;9.13;80.82
68746;SHT31;66104;45.456;11.064;2022-12-29T07:14:03;9.11;80.80
68746;SHT31;66104;45.456;11.064;2022-12-29T07:16:41;9.10;80.89
68746;SHT31;66104;45.456;11.064;2022-12-29T07:19:18;9.11;80.80
68746;SHT31;66104;45.456;11.064;2022-12-29T07:21:55;9.16;80.77
68746;SHT31;66104;45.456;11.064;2022-12-29T07:24:32;9.16;80.70
68746;SHT31;66104;45.456;11.064;2022-12-29T07:27:09;9.15;80.74
68746;SHT31;66104;45.456;11.064;2022-12-29T07:29:45;9.15;80.82
68746;SHT31;66104;45.456;11.064;2022-12-29T07:32:23;9.16;80.92
68746;SHT31;66104;45.456;11.064;2022-12-29T07:35:04;9.19;80.80
68746;SHT31;66104;45.456;11.064;2022-12-29T07:37:45;9.19;80.72
68746;SHT31;66104;45.456;11.064;2022-12-29T07:40:21;9.22;80.70
68746;SHT31;66104;45.456;11.064;2022-12-29T07:42:58;9.28;80.78
68746;SHT31;66104;45.456;11.064;2022-12-29T07:45:41;9.34;80.75
68746;SHT31;66104;45.456;11.064;2022-12-29T07:48:18;9.36;80.64
68746;SHT31;66104;45.456;11.064;2022-12-29T07:50:55;9.36;80.49
68746;SHT31;66104;45.456;11.064;2022-12-29T07:53:31;9.31;80.61
68746;SHT31;66104;45.456;11.064;2022-12-29T07:56:07;9.25;80.81
68746;SHT31;66104;45.456;11.064;2022-12-29T07:58:44;9.22;80.96
68746;SHT31;66104;45.456;11.064;2022-12-29T08:01:22;9.26;80.95
68746;SHT31;66104;45.456;11.064;2022-12-29T08:03:59;9.32;80.89
68746;SHT31;66104;45.456;11.064;2022-12-29T08:06:37;9.35;80.99
68746;SHT31;66104;45.456;11.064;2022-12-29T08:09:14;9.39;81.00
68746;SHT31;66104;45.456;11.064;2022-12-29T08:11:51;9.41;80.98
68746;SHT31;66104;45.456;11.064;2022-12-29T08:14:30;9.42;80.93
68746;SHT31;66104;45.456;11.064;2022-12-29T08:17:06;9.41;81.00
68746;SHT31;66104;45.456;11.064;2022-12-29T08:19:42;9.45;80.93
68746;SHT31;66104;45.456;11.064;2022-12-29T08:22:19;9.49;80.76
68746;SHT31;66104;45.456;11.064;2022-12-29T08:24:57;9.54;80.53
68746;SHT31;66104;45.456;11.064;2022-12-29T08:27:34;9.54;80.32
68746;SHT31;66104;45.456;11.064;2022-12-29T08:30:12;9.55;80.34
68746;SHT31;66104;45.456;11.064;2022-12-29T08:32:50;9.55;80.24
68746;SHT31;66104;45.456;11.064;2022-12-29T08:35:27;9.55;80.27
68746;SHT31;66104;45.456;11.064;2022-12-29T08:38:05;9.57;80.16
68746;SHT31;66104;45.456;11.064;2022-12-29T08:40:42;9.62;80.22
68746;SHT31;66104;45.456;11.064;2022-12-29T08:43:18;9.65;80.27
68746;SHT31;66104;45.456;11.064;2022-12-29T08:45:55;9.63;80.29
68746;SHT31;66104;45.456;11.064;2022-12-29T08:48:32;9.64;80.43
68746;SHT31;66104;45.456;11.064;2022-12-29T08:51:09;9.63;80.53
68746;SHT31;66104;45.456;11.064;2022-12-29T08:53:51;9.64;80.59
68746;SHT31;66104;45.456;11.064;2022-12-29T08:56:28;9.67;80.52
68746;SHT31;66104;45.456;11.064;2022-12-29T08:59:06;9.69;80.62
68746;SHT31;66104;45.456;11.064;2022-12-29T09:01:44;9.72;80.74
68746;SHT31;66104;45.456;11.064;2022-12-29T09:04:21;9.72;80.72
68746;SHT31;66104;45.456;11.064;2022-12-29T09:06:58;9.70;80.75
68746;SHT31;66104;45.456;11.064;2022-12-29T09:09:36;9.70;80.85
68746;SHT31;66104;45.456;11.064;2022-12-29T09:12:13;9.71;80.87
68746;SHT31;66104;45.456;11.064;2022-12-29T09:14:51;9.74;80.75
68746;SHT31;66104;45.456;11.064;2022-12-29T09:17:28;9.75;80.71
68746;SHT31;66104;45.456;11.064;2022-12-29T09:20:16;9.77;80.73
68746;SHT31;66104;45.456;11.064;2022-12-29T09:22:53;9.74;80.79
68746;SHT31;66104;45.456;11.064;2022-12-29T09:25:30;9.67;81.00
68746;SHT31;66104;45.456;11.064;2022-12-29T09:28:06;9.68;81.02
68746;SHT31;66104;45.456;11.064;2022-12-29T09:30:46;9.73;81.00
68746;SHT31;66104;45.456;11.064;2022-12-29T09:33:23;9.74;81.09
68746;SHT31;66104;45.456;11.064;2022-12-29T09:35:58;9.79;81.05
68746;SHT31;66104;45.456;11.064;2022-12-29T09:38:36;9.79;80.96
68746;SHT31;66104;45.456;11.064;2022-12-29T09:41:16;9.81;80.90
68746;SHT31;66104;45.456;11.064;2022-12-29T09:44:05;9.82;80.88
68746;SHT31;66104;45.456;11.064;2022-12-29T09:46:52;9.88;80.39
68746;SHT31;66104;45.456;11.064;2022-12-29T09:49:32;9.94;80.17
68746;SHT31;66104;45.456;11.064;2022-12-29T09:52:19;10.00;79.92
68746;SHT31;66104;45.456;11.064;2022-12-29T09:55:02;10.03;79.75
68746;SHT31;66104;45.456;11.064;2022-12-29T09:57:45;9.98;80.20
68746;SHT31;66104;45.456;11.064;2022-12-29T10:00:33;9.86;80.85
68746;SHT31;66104;45.456;11.064;2022-12-29T10:03:26;9.81;81.09
68746;SHT31;66104;45.456;11.064;2022-12-29T10:06:17;9.86;81.02
68746;SHT31;66104;45.456;11.064;2022-12-29T10:09:01;9.89;80.82
68746;SHT31;66104;45.456;11.064;2022-12-29T10:11:51;9.93;80.57
68746;SHT31;66104;45.456;11.064;2022-12-29T10:14:47;9.94;80.39
68746;SHT31;66104;45.456;11.064;2022-12-29T10:17:38;9.95;80.30
68746;SHT31;66104;45.456;11.064;2022-12-29T10:20:30;9.97;80.30
68746;SHT31;66104;45.456;11.064;2022-12-29T10:23:22;10.05;80.24
68746;SHT31;66104;45.456;11.064;2022-12-29T10:26:09;10.18;79.78
68746;SHT31;66104;45.456;11.064;2022-12-29T10:28:50;10.31;79.57
68746;SHT31;66104;45.456;11.064;2022-12-29T10:31:32;10.39;79.36
68746;SHT31;66104;45.456;11.064;2022-12-29T10:34:18;10.44;78.93
68746;SHT31;66104;45.456;11.064;2022-12-29T10:37:04;10.50;78.95
68746;SHT31;66104;45.456;11.064;2022-12-29T10:39:57;10.59;78.79
68746;SHT31;66104;45.456;11.064;2022-12-29T10:42:47;10.62;79.43
68746;SHT31;66104;45.456;11.064;2022-12-29T10:45:28;10.64;79.23
68746;SHT31;66104;45.456;11.064;2022-12-29T10:48:08;10.69;79.11
68746;SHT31;66104;45.456;11.064;2022-12-29T10:50:59;10.74;78.57
68746;SHT31;66104;45.456;11.064;2022-12-29T10:53:40;10.79;78.36
68746;SHT31;66104;45.456;11.064;2022-12-29T10:56:25;10.82;78.07
68746;SHT31;66104;45.456;11.064;2022-12-29T10:59:11;10.85;78.62
68746;SHT31;66104;45.456;11.064;2022-12-29T11:01:56;10.88;78.78
68746;SHT31;66104;45.456;11.064;2022-12-29T11:04:57;10.93;78.81
68746;SHT31;66104;45.456;11.064;2022-12-29T11:07:44;11.00;78.49
68746;SHT31;66104;45.456;11.064;2022-12-29T11:10:36;11.07;78.04
68746;SHT31;66104;45.456;11.064;2022-12-29T11:13:15;11.10;78.16
68746;SHT31;66104;45.456;11.064;2022-12-29T11:16:07;11.10;78.08
68746;SHT31;66104;45.456;11.064;2022-12-29T11:18:45;11.10;77.83
68746;SHT31;66104;45.456;11.064;2022-12-29T11:21:26;11.13;77.76
68746;SHT31;66104;45.456;11.064;2022-12-29T11:24:19;11.13;77.74
68746;SHT31;66104;45.456;11.064;2022-12-29T11:27:10;11.13;77.08
68746;SHT31;66104;45.456;11.064;2022-12-29T11:29:52;11.17;77.13
68746;SHT31;66104;45.456;11.064;2022-12-29T11:32:29;11.20;77.24
68746;SHT31;66104;45.456;11.064;2022-12-29T11:35:17;11.22;77.11
68746;SHT31;66104;45.456;11.064;2022-12-29T11:38:13;11.16;76.96
68746;SHT31;66104;45.456;11.064;2022-12-29T11:40:57;11.09;77.18
68746;SHT31;66104;45.456;11.064;2022-12-29T11:43:37;11.03;77.27
68746;SHT31;66104;45.456;11.064;2022-12-29T11:46:16;10.96;77.34
68746;SHT31;66104;45.456;11.064;2022-12-29T11:48:55;10.94;77.55
68746;SHT31;66104;45.456;11.064;2022-12-29T11:51:34;10.91;77.60
68746;SHT31;66104;45.456;11.064;2022-12-29T11:54:18;10.91;77.57
68746;SHT31;66104;45.456;11.064;2022-12-29T11:56:58;10.88;77.57
68746;SHT31;66104;45.456;11.064;2022-12-29T11:59:44;10.87;77.80
68746;SHT31;66104;45.456;11.064;2022-12-29T12:02:30;10.84;77.95
68746;SHT31;66104;45.456;11.064;2022-12-29T12:05:16;10.84;78.07
68746;SHT31;66104;45.456;11.064;2022-12-29T12:08:11;10.83;77.99
68746;SHT31;66104;45.456;11.064;2022-12-29T12:10:55;10.79;78.16
68746;SHT31;66104;45.456;11.064;2022-12-29T12:13:43;10.77;78.22
68746;SHT31;66104;45.456;11.064;2022-12-29T12:16:32;10.75;78.26
68746;SHT31;66104;45.456;11.064;2022-12-29T12:19:20;10.73;78.40
68746;SHT31;66104;45.456;11.064;2022-12-29T12:22:10;10.70;78.50
68746;SHT31;66104;45.456;11.064;2022-12-29T12:24:57;10.69;78.56
68746;SHT31;66104;45.456;11.064;2022-12-29T12:27:41;10.65;78.55
68746;SHT31;66104;45.456;11.064;2022-12-29T12:30:25;10.61;78.57
68746;SHT31;66104;45.456;11.064;2022-12-29T12:33:13;10.58;78.74
68746;SHT31;66104;45.456;11.064;2022-12-29T12:36:05;10.59;78.86
68746;SHT31;66104;45.456;11.064;2022-12-29T12:39:10;10.60;79.23
68746;SHT31;66104;45.456;11.064;2022-12-29T12:42:00;10.64;79.41
68746;SHT31;66104;45.456;11.064;2022-12-29T12:44:59;10.66;79.42
68746;SHT31;66104;45.456;11.064;2022-12-29T12:48:12;10.68;79.69
68746;SHT31;66104;45.456;11.064;2022-12-29T12:51:14;10.67;79.78
68746;SHT31;66104;45.456;11.064;2022-12-29T12:54:16;10.68;79.73
68746;SHT31;66104;45.456;11.064;2022-12-29T12:57:14;10.67;79.71
68746;SHT31;66104;45.456;11.064;2022-12-29T13:00:01;10.68;79.51
68746;SHT31;66104;45.456;11.064;2022-12-29T13:02:50;10.71;79.46
68746;SHT31;66104;45.456;11.064;2022-12-29T13:05:45;10.74;78.98
68746;SHT31;66104;45.456;11.064;2022-12-29T13:08:49;10.74;78.55
68746;SHT31;66104;45.456;11.064;2022-12-29T13:11:45;10.72;78.80
68746;SHT31;66104;45.456;11.064;2022-12-29T13:14:42;10.70;78.85
68746;SHT31;66104;45.456;11.064;2022-12-29T13:17:36;10.70;78.84
68746;SHT31;66104;45.456;11.064;2022-12-29T13:20:27;10.68;79.14
68746;SHT31;66104;45.456;11.064;2022-12-29T13:23:13;10.71;79.36
68746;SHT31;66104;45.456;11.064;2022-12-29T13:26:04;10.74;79.34
68746;SHT31;66104;45.456;11.064;2022-12-29T13:28:51;10.77;79.41
68746;SHT31;66104;45.456;11.064;2022-12-29T13:31:43;10.79;79.37
68746;SHT31;66104;45.456;11.064;2022-12-29T13:34:35;10.78;79.35
68746;SHT31;66104;45.456;11.064;2022-12-29T13:37:20;10.75;79.36
68746;SHT31;66104;45.456;11.064;2022-12-29T13:40:10;10.74;79.42
68746;SHT31;66104;45.456;11.064;2022-12-29T13:42:54;10.75;79.51
68746;SHT31;66104;45.456;11.064;2022-12-29T13:45:31;10.77;79.55
68746;SHT31;66104;45.456;11.064;2022-12-29T13:48:13;10.78;79.57
68746;SHT31;66104;45.456;11.064;2022-12-29T13:50:57;10.80;79.74
68746;SHT31;66104;45.456;11.064;2022-12-29T13:53:36;10.81;79.86
68746;SHT31;66104;45.456;11.064;2022-12-29T13:56:30;10.82;79.88
68746;SHT31;66104;45.456;11.064;2022-12-29T13:59:17;10.82;79.65
68746;SHT31;66104;45.456;11.064;2022-12-29T14:02:13;10.83;79.54
68746;SHT31;66104;45.456;11.064;2022-12-29T14:05:26;10.79;79.23
68746;SHT31;66104;45.456;11.064;2022-12-29T14:08:03;10.68;79.10
68746;SHT31;66104;45.456;11.064;2022-12-29T14:10:50;10.55;79.35
68746;SHT31;66104;45.456;11.064;2022-12-29T14:13:28;10.46;79.41
68746;SHT31;66104;45.456;11.064;2022-12-29T14:16:09;10.39;79.59
68746;SHT31;66104;45.456;11.064;2022-12-29T14:19:09;10.38;79.80
68746;SHT31;66104;45.456;11.064;2022-12-29T14:21:52;10.43;79.74
68746;SHT31;66104;45.456;11.064;2022-12-29T14:24:41;10.51;79.73
68746;SHT31;66104;45.456;11.064;2022-12-29T14:33:35;10.58;79.57
68746;SHT31;66104;45.456;11.064;2022-12-29T14:39:29;10.59;79.44
68746;SHT31;66104;45.456;11.064;2022-12-29T14:42:14;10.58;79.60
68746;SHT31;66104;45.456;11.064;2022-12-29T14:44:55;10.58;79.49
68746;SHT31;66104;45.456;11.064;2022-12-29T14:47:39;10.56;79.43
68746;SHT31;66104;45.456;11.064;2022-12-29T14:50:21;10.56;79.61
68746;SHT31;66104;45.456;11.064;2022-12-29T14:53:06;10.54;79.78
68746;SHT31;66104;45.456;11.064;2022-12-29T14:56:15;10.51;79.91
68746;SHT31;66104;45.456;11.064;2022-12-29T14:58:56;10.49;80.14
68746;SHT31;66104;45.456;11.064;2022-12-29T15:01:39;10.48;80.16
68746;SHT31;66104;45.456;11.064;2022-12-29T15:04:19;10.46;80.21
68746;SHT31;66104;45.456;11.064;2022-12-29T15:07:02;10.46;80.35
68746;SHT31;66104;45.456;11.064;2022-12-29T15:09:46;10.49;80.57
68746;SHT31;66104;45.456;11.064;2022-12-29T15:12:31;10.50;80.51
68746;SHT31;66104;45.456;11.064;2022-12-29T15:15:22;10.49;80.55
68746;SHT31;66104;45.456;11.064;2022-12-29T15:18:12;10.47;80.64
68746;SHT31;66104;45.456;11.064;2022-12-29T15:20:58;10.41;80.85
68746;SHT31;66104;45.456;11.064;2022-12-29T15:23:37;10.40;81.01
68746;SHT31;66104;45.456;11.064;2022-12-29T15:26:15;10.41;80.99
68746;SHT31;66104;45.456;11.064;2022-12-29T15:28:53;10.44;80.95
68746;SHT31;66104;45.456;11.064;2022-12-29T15:31:30;10.45;80.86
68746;SHT31;66104;45.456;11.064;2022-12-29T15:34:19;10.45;80.88
68746;SHT31;66104;45.456;11.064;2022-12-29T15:37:05;10.48;80.77
68746;SHT31;66104;45.456;11.064;2022-12-29T15:39:48;10.49;80.86
68746;SHT31;66104;45.456;11.064;2022-12-29T15:45:32;10.55;81.11
68746;SHT31;66104;45.456;11.064;2022-12-29T15:48:10;10.56;81.17
68746;SHT31;66104;45.456;11.064;2022-12-29T15:50:54;10.54;81.20
68746;SHT31;66104;45.456;11.064;2022-12-29T15:53:31;10.52;81.06
68746;SHT31;66104;45.456;11.064;2022-12-29T15:56:09;10.52;81.00
68746;SHT31;66104;45.456;11.064;2022-12-29T15:58:49;10.53;80.99
68746;SHT31;66104;45.456;11.064;2022-12-29T16:01:27;10.56;80.96
68746;SHT31;66104;45.456;11.064;2022-12-29T16:04:06;10.56;80.73
68746;SHT31;66104;45.456;11.064;2022-12-29T16:06:53;10.53;80.73
68746;SHT31;66104;45.456;11.064;2022-12-29T16:09:32;10.49;80.83
68746;SHT31;66104;45.456;11.064;2022-12-29T16:12:16;10.45;80.88
68746;SHT31;66104;45.456;11.064;2022-12-29T16:14:55;10.42;81.00
68746;SHT31;66104;45.456;11.064;2022-12-29T16:17:36;10.43;81.02
68746;SHT31;66104;45.456;11.064;2022-12-29T16:20:22;10.42;81.03
68746;SHT31;66104;45.456;11.064;2022-12-29T16:23:15;10.43;81.10
68746;SHT31;66104;45.456;11.064;2022-12-29T16:25:57;10.43;81.07
68746;SHT31;66104;45.456;11.064;2022-12-29T16:28:39;10.44;81.09
68746;SHT31;66104;45.456;11.064;2022-12-29T16:31:20;10.46;80.98
68746;SHT31;66104;45.456;11.064;2022-12-29T16:34:21;10.45;81.00
68746;SHT31;66104;45.456;11.064;2022-12-29T16:37:01;10.42;81.36
68746;SHT31;66104;45.456;11.064;2022-12-29T16:39:52;10.41;81.53
68746;SHT31;66104;45.456;11.064;2022-12-29T16:42:49;10.42;81.48
68746;SHT31;66104;45.456;11.064;2022-12-29T16:48:54;10.46;81.49
68746;SHT31;66104;45.456;11.064;2022-12-29T16:51:31;10.47;81.41
68746;SHT31;66104;45.456;11.064;2022-12-29T16:54:13;10.44;81.38
68746;SHT31;66104;45.456;11.064;2022-12-29T16:56:59;10.40;81.44
68746;SHT31;66104;45.456;11.064;2022-12-29T16:59:38;10.37;81.59
68746;SHT31;66104;45.456;11.064;2022-12-29T17:02:18;10.37;81.64
68746;SHT31;66104;45.456;11.064;2022-12-29T17:04:56;10.38;81.61
68746;SHT31;66104;45.456;11.064;2022-12-29T17:07:39;10.41;81.53
68746;SHT31;66104;45.456;11.064;2022-12-29T17:10:17;10.38;81.42
68746;SHT31;66104;45.456;11.064;2022-12-29T17:13:14;10.31;81.72
68746;SHT31;66104;45.456;11.064;2022-12-29T17:15:51;10.31;81.82
68746;SHT31;66104;45.456;11.064;2022-12-29T17:18:27;10.32;81.97
68746;SHT31;66104;45.456;11.064;2022-12-29T17:21:03;10.36;82.03